Weslaco Annex Farm's Hourly Summary for Thursday, July 5, 2018
Hour Temp
(f)
RH
(%)
Solar Rad.
(MJ/m2)
Rainfall
(in)
Wind
(mph)
7/5/2018 12:00 AM 81 85 0 0 6.03
7/5/2018 1:00 AM 81 87 0 0 5.44
7/5/2018 2:00 AM 80 89 0 0 4.67
7/5/2018 3:00 AM 80 90 0 0 3.5
7/5/2018 4:00 AM 79 91 0 0 3.8
7/5/2018 5:00 AM 79 84 0 0 4.72
7/5/2018 6:00 AM 78 85 0.01 0 3
7/5/2018 7:00 AM 79 89 0.11 0 3.83
7/5/2018 8:00 AM 81 87 0.32 0 4.53
7/5/2018 9:00 AM 83 82 0.75 0 4.33
7/5/2018 10:00 AM 85 77 0.83 0 4.63
7/5/2018 11:00 AM 88 64 1.83 0 6.27
7/5/2018 12:00 PM 90 56 2.02 0 7.31
7/5/2018 1:00 PM 91 51 2.05 0 6.69
7/5/2018 2:00 PM 92 55 2.09 0 7.87
7/5/2018 3:00 PM 92 52 1.68 0 7.48
7/5/2018 4:00 PM 91 55 1.47 0 11.09
7/5/2018 5:00 PM 89 61 0.78 0 11.1
7/5/2018 6:00 PM 88 61 0.71 0 10.76
7/5/2018 7:00 PM 86 65 0.31 0 10.23
7/5/2018 8:00 PM 84 73 0.02 0 8.8
7/5/2018 9:00 PM 82 79 0 0 5.95
7/5/2018 10:00 PM 80 85 0 0 2.86
7/5/2018 11:00 PM 79 89 0 0 1.81
Data Summary 84 74 14.98 0.00 6.11